Time;durP1;ratioP1;P1;durP2;ratioP2;P2;SDS_P1;SDS_P2;PMS_P1;PMS_P2;Temp;Humidity;BMP_temperature;BMP_pressure;BME280_temperature;BME280_humidity;BME280_pressure;Samples;Min_cycle;Max_cycle;Signal;HPM_P1;HPM_P2
2024/01/08 00:01:50;;;;;;;1999.90;999.90;;;-0.90;99.90;;;;;;5066451;28;20033;-71
2024/01/08 00:04:16;;;;;;;1999.90;999.90;;;-1.00;99.90;;;;;;5068629;28;20050;-71
2024/01/08 00:06:43;;;;;;;1999.90;999.90;;;-1.00;99.90;;;;;;5064782;28;20039;-71
2024/01/08 00:09:09;;;;;;;1999.90;999.90;;;-1.00;99.90;;;;;;5057643;28;20025;-71
2024/01/08 00:11:34;;;;;;;1999.90;999.90;;;-1.00;99.90;;;;;;5071996;28;20096;-71
2024/01/08 00:14:01;;;;;;;1999.90;999.90;;;-1.10;99.90;;;;;;5072314;28;20154;-71
2024/01/08 00:16:27;;;;;;;1999.90;999.90;;;-1.10;99.90;;;;;;5061714;28;20033;-71
2024/01/08 00:18:52;;;;;;;1999.90;999.90;;;-1.10;99.90;;;;;;5067329;28;20036;-71
2024/01/08 00:21:18;;;;;;;1999.90;999.90;;;-1.10;99.90;;;;;;5060669;28;20034;-71
2024/01/08 00:23:44;;;;;;;1999.90;999.90;;;-1.20;99.90;;;;;;5076045;28;20043;-71
2024/01/08 00:26:11;;;;;;;1999.90;999.90;;;-1.20;99.90;;;;;;5065107;28;20261;-71
2024/01/08 00:28:37;;;;;;;;;;;-1.20;99.90;;;;;;5062768;28;20168;-71
2024/01/08 00:31:03;;;;;;;1999.90;999.90;;;-1.10;99.90;;;;;;5059464;28;20335;-71
2024/01/08 00:33:28;;;;;;;1999.90;999.90;;;-1.20;99.90;;;;;;5060651;28;20131;-71
2024/01/08 00:35:54;;;;;;;1999.90;999.90;;;-1.20;99.90;;;;;;5064898;28;20048;-71
2024/01/08 00:38:20;;;;;;;1999.90;999.90;;;-1.20;99.90;;;;;;5067629;28;20027;-71
2024/01/08 00:40:46;;;;;;;1999.90;999.90;;;-1.30;99.90;;;;;;5056617;28;20029;-71
2024/01/08 00:43:11;;;;;;;1999.90;999.90;;;-1.30;99.90;;;;;;5065220;28;20036;-71
2024/01/08 00:45:37;;;;;;;1999.90;999.90;;;-1.30;99.90;;;;;;5069774;28;20025;-71
2024/01/08 00:48:03;;;;;;;1999.90;999.90;;;-1.40;99.90;;;;;;5063968;28;20328;-71
2024/01/08 00:50:29;;;;;;;1999.90;999.90;;;-1.40;99.90;;;;;;5067724;28;20025;-71
2024/01/08 00:52:55;;;;;;;1999.90;999.90;;;-1.50;99.90;;;;;;5056903;28;20089;-67
2024/01/08 00:55:20;;;;;;;1999.90;999.90;;;-1.50;99.90;;;;;;5059248;28;20029;-71
2024/01/08 00:57:46;;;;;;;1999.90;999.90;;;-1.40;99.90;;;;;;5060888;28;20123;-71
2024/01/08 01:00:12;;;;;;;1999.90;999.90;;;-1.50;99.90;;;;;;5059511;28;20021;-68
2024/01/08 01:02:41;;;;;;;1999.90;999.90;;;-1.50;99.90;;;;;;5061491;28;20033;-71
2024/01/08 01:05:07;;;;;;;1999.90;999.90;;;-1.50;99.90;;;;;;5062025;28;20035;-71
2024/01/08 01:07:33;;;;;;;1999.90;999.90;;;-1.40;99.90;;;;;;5069869;28;20432;-67
2024/01/08 01:09:58;;;;;;;1999.90;999.90;;;-1.40;99.90;;;;;;5064173;28;20035;-71
2024/01/08 01:12:24;;;;;;;1999.90;999.90;;;-1.40;99.90;;;;;;5067705;28;20033;-67
2024/01/08 01:14:50;;;;;;;1999.90;999.90;;;-1.40;99.90;;;;;;5066019;28;20039;-71
2024/01/08 01:17:16;;;;;;;1999.90;999.90;;;-1.40;99.90;;;;;;5063222;28;20032;-68
2024/01/08 01:19:42;;;;;;;1999.90;999.90;;;-1.40;99.90;;;;;;5067749;28;20040;-72
2024/01/08 01:22:07;;;;;;;1999.90;999.90;;;-1.40;99.90;;;;;;5068056;28;20036;-71
2024/01/08 01:24:33;;;;;;;1999.90;999.90;;;-1.50;99.90;;;;;;5062517;28;20025;-68
2024/01/08 01:26:59;;;;;;;1999.90;999.90;;;-1.50;99.90;;;;;;5060902;28;20029;-70
2024/01/08 01:29:25;;;;;;;1999.90;999.90;;;-1.50;99.90;;;;;;5066724;28;20473;-71
2024/01/08 01:31:50;;;;;;;1999.90;999.90;;;-1.50;99.90;;;;;;5057701;28;20036;-72
2024/01/08 01:34:17;;;;;;;1999.90;999.90;;;-1.50;99.90;;;;;;5065205;28;20281;-72
2024/01/08 01:36:45;;;;;;;1999.90;999.90;;;-1.50;99.90;;;;;;5052996;28;20040;-67
2024/01/08 01:39:10;;;;;;;1999.90;999.90;;;-1.50;99.90;;;;;;5063743;28;20047;-71
2024/01/08 01:41:36;;;;;;;1999.90;999.90;;;-1.50;99.90;;;;;;5059726;28;20052;-71
2024/01/08 01:44:02;;;;;;;1999.90;999.90;;;-1.50;99.90;;;;;;5062334;28;20035;-67
2024/01/08 01:46:44;;;;;;;1999.90;999.90;;;-1.50;99.90;;;;;;5055227;28;20036;-71
2024/01/08 01:49:13;;;;;;;1999.90;999.90;;;-1.50;99.90;;;;;;5061767;28;20427;-71
2024/01/08 01:51:41;;;;;;;1999.90;999.90;;;-1.50;99.90;;;;;;5067228;28;20111;-71
2024/01/08 01:54:09;;;;;;;1999.90;999.90;;;-1.60;99.90;;;;;;5065364;28;20037;-67
2024/01/08 01:56:36;;;;;;;1999.90;999.90;;;-1.60;99.90;;;;;;5072562;28;20039;-71
2024/01/08 01:59:03;;;;;;;1999.90;999.90;;;-1.60;99.90;;;;;;5056354;28;20115;-71
2024/01/08 02:01:30;;;;;;;1999.90;999.90;;;-1.50;99.90;;;;;;5063956;28;20036;-71
2024/01/08 02:03:56;;;;;;;1999.90;999.90;;;-1.50;99.90;;;;;;5073682;28;20033;-71
2024/01/08 02:06:23;;;;;;;1999.90;999.90;;;-1.50;99.90;;;;;;5071691;28;20033;-71
2024/01/08 02:08:52;;;;;;;1999.90;999.90;;;-1.50;99.90;;;;;;5066103;28;20032;-71
2024/01/08 02:11:18;;;;;;;1999.90;999.90;;;-1.50;99.90;;;;;;5071256;28;20020;-71
2024/01/08 02:13:44;;;;;;;1999.90;999.90;;;-1.60;99.90;;;;;;5064350;28;20339;-71
2024/01/08 02:16:10;;;;;;;1999.90;999.90;;;-1.60;99.90;;;;;;5064312;28;20028;-68
2024/01/08 02:18:36;;;;;;;1999.90;999.90;;;-1.70;99.90;;;;;;5059708;28;20021;-71
2024/01/08 02:21:01;;;;;;;1999.90;999.90;;;-1.70;99.90;;;;;;5056282;28;20053;-71
2024/01/08 02:23:27;;;;;;;1999.90;999.90;;;-1.70;99.90;;;;;;5071338;28;20075;-71
2024/01/08 02:25:53;;;;;;;1999.90;999.90;;;-1.80;99.90;;;;;;5069643;28;20028;-71
2024/01/08 02:28:19;;;;;;;1999.90;999.90;;;-1.80;99.90;;;;;;5062325;28;20082;-71
2024/01/08 02:30:45;;;;;;;1999.90;999.90;;;-1.90;99.90;;;;;;5069849;28;20029;-67
2024/01/08 02:33:10;;;;;;;1999.90;999.90;;;-1.90;99.90;;;;;;5070282;28;20024;-69
2024/01/08 02:35:36;;;;;;;1999.90;999.90;;;-1.90;99.90;;;;;;5064776;28;20430;-71
2024/01/08 02:38:02;;;;;;;1999.90;999.90;;;-1.90;99.90;;;;;;5072756;28;20075;-71
2024/01/08 02:40:28;;;;;;;1999.90;999.90;;;-1.90;99.90;;;;;;5071039;28;20029;-71
2024/01/08 02:42:54;;;;;;;1999.90;999.90;;;-2.00;99.90;;;;;;5065775;28;20123;-67
2024/01/08 02:45:20;;;;;;;1999.90;999.90;;;-2.00;99.90;;;;;;5068393;28;20100;-67
2024/01/08 02:47:46;;;;;;;1999.90;999.90;;;-2.00;99.90;;;;;;5060265;28;20025;-72
2024/01/08 02:50:11;;;;;;;1999.90;999.90;;;-1.90;99.90;;;;;;5058418;28;20044;-71
2024/01/08 02:52:37;;;;;;;1999.90;999.90;;;-2.00;99.90;;;;;;5067577;28;20115;-68
2024/01/08 02:55:03;;;;;;;1999.90;999.90;;;-2.00;99.90;;;;;;5062651;28;20331;-71
2024/01/08 02:57:30;;;;;;;1999.90;999.90;;;-2.00;99.90;;;;;;5071891;28;20265;-71
2024/01/08 02:59:56;;;;;;;1999.90;999.90;;;-2.10;99.90;;;;;;5065281;28;20113;-71
2024/01/08 03:02:24;;;;;;;1999.90;999.90;;;-2.10;99.90;;;;;;5062117;28;20155;-71
2024/01/08 03:04:51;;;;;;;1999.90;999.90;;;-2.10;99.90;;;;;;5064396;28;20040;-71
2024/01/08 03:07:20;;;;;;;1999.90;999.90;;;-2.10;99.90;;;;;;5069089;28;20355;-67
2024/01/08 03:09:46;;;;;;;1999.90;999.90;;;-2.10;99.90;;;;;;5071662;28;20025;-71
2024/01/08 03:12:15;;;;;;;;;;;-2.10;99.90;;;;;;5065230;28;20033;-67
2024/01/08 03:14:42;;;;;;;1999.90;999.90;;;-2.10;99.90;;;;;;5067412;28;19908;-71
2024/01/08 03:17:08;;;;;;;;;;;-2.10;99.90;;;;;;5069868;28;20037;-71
2024/01/08 03:19:33;;;;;;;1999.90;999.90;;;-2.10;99.90;;;;;;5061162;28;19986;-67
2024/01/08 03:22:02;;;;;;;1999.90;999.90;;;-2.10;99.90;;;;;;5067002;28;20032;-71
2024/01/08 03:24:29;;;;;;;1999.90;999.90;;;-2.20;99.90;;;;;;5066597;28;20386;-70
2024/01/08 03:26:54;;;;;;;1999.90;999.90;;;-2.10;99.90;;;;;;5060492;28;20320;-71
2024/01/08 03:29:21;;;;;;;1999.90;999.90;;;-2.10;99.90;;;;;;5068054;28;20029;-71
2024/01/08 03:31:47;;;;;;;1999.90;999.90;;;-2.10;99.90;;;;;;5066142;28;20030;-71
2024/01/08 03:34:14;;;;;;;1999.90;999.90;;;-2.10;99.90;;;;;;5071048;28;20063;-71
2024/01/08 03:36:48;;;;;;;;;;;-2.20;99.90;;;;;;5061474;28;20032;-71
2024/01/08 03:39:15;;;;;;;1999.90;999.90;;;-2.20;99.90;;;;;;5072243;28;20011;-71
2024/01/08 03:41:42;;;;;;;1999.90;999.90;;;-2.20;99.90;;;;;;5056534;28;20044;-71
2024/01/08 03:44:09;;;;;;;1999.90;999.90;;;-2.20;99.90;;;;;;5066739;28;20043;-67
2024/01/08 03:46:36;;;;;;;1999.90;999.90;;;-2.10;99.90;;;;;;5070068;28;20071;-71
2024/01/08 03:49:02;;;;;;;1999.90;999.90;;;-2.10;99.90;;;;;;5066991;28;20028;-71
2024/01/08 03:51:28;;;;;;;1999.90;999.90;;;-2.10;99.90;;;;;;5063691;28;20111;-70
2024/01/08 03:53:54;;;;;;;1999.90;999.90;;;-2.10;99.90;;;;;;5061582;28;20108;-71
2024/01/08 03:56:20;;;;;;;1999.90;999.90;;;-2.00;99.90;;;;;;5064824;28;20054;-67
2024/01/08 03:58:46;;;;;;;1999.90;999.90;;;-2.10;99.90;;;;;;5064479;28;20021;-71
2024/01/08 04:01:12;;;;;;;1999.90;999.90;;;-2.10;99.90;;;;;;5066603;28;20055;-71
2024/01/08 04:03:38;;;;;;;1999.90;999.90;;;-2.10;99.90;;;;;;5066230;28;20107;-71
2024/01/08 04:06:03;;;;;;;1999.90;999.90;;;-2.10;99.90;;;;;;5065696;28;20028;-71
2024/01/08 04:08:29;;;;;;;1999.90;999.90;;;-2.20;99.90;;;;;;5072315;28;20043;-71
2024/01/08 04:10:55;;;;;;;1999.90;999.90;;;-2.20;99.90;;;;;;5066647;28;20036;-71
2024/01/08 04:13:21;;;;;;;1999.90;999.90;;;-2.10;99.90;;;;;;5065166;28;20273;-71
2024/01/08 04:15:47;;;;;;;1999.90;999.90;;;-2.20;99.90;;;;;;5055087;28;20035;-71
2024/01/08 04:18:13;;;;;;;1999.90;999.90;;;-2.10;99.90;;;;;;5065846;28;20033;-68
2024/01/08 04:20:39;;;;;;;1999.90;999.90;;;-2.10;99.90;;;;;;5053287;28;20037;-71
2024/01/08 04:23:05;;;;;;;1999.90;999.90;;;-2.20;99.90;;;;;;5063788;28;20070;-67
2024/01/08 04:25:31;;;;;;;1999.90;999.90;;;-2.20;99.90;;;;;;5065525;28;20372;-70
2024/01/08 04:27:57;;;;;;;1999.90;999.90;;;-2.20;99.90;;;;;;5064142;28;20033;-70
2024/01/08 04:30:23;;;;;;;1999.90;999.90;;;-2.20;99.90;;;;;;5065381;28;20108;-71
2024/01/08 04:32:49;;;;;;;1999.90;999.90;;;-2.20;99.90;;;;;;5059326;28;20036;-71
2024/01/08 04:35:15;;;;;;;1999.90;999.90;;;-2.20;99.90;;;;;;5067693;28;20457;-67
2024/01/08 04:37:41;;;;;;;1999.90;999.90;;;-2.10;99.90;;;;;;5065477;28;20456;-71
2024/01/08 04:40:08;;;;;;;1999.90;999.90;;;-2.00;99.90;;;;;;5058339;28;20181;-71
2024/01/08 04:42:34;;;;;;;1999.90;999.90;;;-1.90;99.90;;;;;;5065732;28;20044;-71
2024/01/08 04:45:00;;;;;;;1999.90;999.90;;;-1.90;99.90;;;;;;5068449;28;20108;-71
2024/01/08 04:47:26;;;;;;;1999.90;999.90;;;-1.80;99.90;;;;;;5063526;28;20162;-71
2024/01/08 04:49:51;;;;;;;1999.90;999.90;;;-1.80;99.90;;;;;;5063774;28;20040;-71
2024/01/08 04:52:17;;;;;;;1999.90;999.90;;;-1.70;99.90;;;;;;5069174;28;20029;-71
2024/01/08 04:54:43;;;;;;;1999.90;999.90;;;-1.70;99.90;;;;;;5068686;28;20312;-71
2024/01/08 04:57:09;;;;;;;1999.90;999.90;;;-1.70;99.90;;;;;;5064987;28;20040;-71
2024/01/08 04:59:42;;;;;;;1999.90;999.90;;;-1.60;99.90;;;;;;5064835;28;20028;-71
2024/01/08 05:02:11;;;;;;;1999.90;999.90;;;-1.60;99.90;;;;;;5065821;28;20036;-71
2024/01/08 05:04:38;;;;;;;1999.90;999.90;;;-1.60;99.90;;;;;;5064378;28;20027;-71
2024/01/08 05:07:04;;;;;;;1999.90;999.90;;;-1.50;99.90;;;;;;5065216;28;20035;-70
2024/01/08 05:09:30;;;;;;;1999.90;999.90;;;-1.50;99.90;;;;;;5071585;28;20051;-68
2024/01/08 05:11:57;;;;;;;1999.90;999.90;;;-1.40;99.90;;;;;;5062298;28;20047;-71
2024/01/08 05:14:22;;;;;;;1999.90;999.90;;;-1.40;99.90;;;;;;5066094;28;20037;-67
2024/01/08 05:16:49;;;;;;;1999.90;999.90;;;-1.40;99.90;;;;;;5065120;28;20530;-71
2024/01/08 05:19:15;;;;;;;1999.90;999.90;;;-1.30;99.90;;;;;;5066801;28;20278;-71
2024/01/08 05:21:41;;;;;;;1999.90;999.90;;;-1.30;99.90;;;;;;5068958;28;20327;-71
2024/01/08 05:24:07;;;;;;;1999.90;999.90;;;-1.30;99.90;;;;;;5069801;28;20369;-71
2024/01/08 05:26:33;;;;;;;1999.90;999.90;;;-1.20;99.90;;;;;;5074482;28;20048;-71
2024/01/08 05:28:59;;;;;;;1999.90;999.90;;;-1.20;99.90;;;;;;5074863;28;20043;-71
2024/01/08 05:31:25;;;;;;;1999.90;999.90;;;-1.20;99.90;;;;;;5071963;28;20020;-70
2024/01/08 05:33:51;;;;;;;1999.90;999.90;;;-1.10;99.90;;;;;;5071611;28;20044;-71
2024/01/08 05:36:17;;;;;;;1999.90;999.90;;;-1.10;99.90;;;;;;5074414;28;20025;-71
2024/01/08 05:38:43;;;;;;;1999.90;999.90;;;-1.10;99.90;;;;;;5072343;28;20054;-71
2024/01/08 05:41:09;;;;;;;1999.90;999.90;;;-1.10;99.90;;;;;;5068140;28;20060;-67
2024/01/08 05:43:38;;;;;;;1999.90;999.90;;;-1.10;99.90;;;;;;5070924;28;20041;-71
2024/01/08 05:46:07;;;;;;;1999.90;999.90;;;-1.10;99.90;;;;;;5067188;28;20269;-68
2024/01/08 05:48:43;;;;;;;1999.90;999.90;;;-1.00;99.90;;;;;;5066151;28;20380;-71
2024/01/08 05:51:09;;;;;;;1999.90;999.90;;;-1.00;99.90;;;;;;5067335;28;20489;-71
2024/01/08 05:53:35;;;;;;;1999.90;999.90;;;-1.00;99.90;;;;;;5066134;28;20476;-71
2024/01/08 05:56:03;;;;;;;1999.90;999.90;;;-0.90;99.90;;;;;;5058740;28;20041;-71
2024/01/08 05:58:32;;;;;;;1999.90;999.90;;;-0.90;99.90;;;;;;5062430;28;20037;-71
2024/01/08 06:00:59;;;;;;;1999.90;999.90;;;-0.90;99.90;;;;;;5063564;28;20032;-71
2024/01/08 06:03:24;;;;;;;1999.90;999.90;;;-0.90;99.90;;;;;;5059489;28;20073;-71
2024/01/08 06:05:50;;;;;;;1999.90;999.90;;;-0.90;99.90;;;;;;5067540;28;20024;-71
2024/01/08 06:08:17;;;;;;;1999.90;999.90;;;-0.90;99.90;;;;;;5066974;28;20056;-71
2024/01/08 06:10:43;;;;;;;1999.90;999.90;;;-0.90;99.90;;;;;;5064164;28;20035;-71
2024/01/08 06:13:10;;;;;;;1999.90;999.90;;;-0.90;99.90;;;;;;5062730;28;20033;-71
2024/01/08 06:15:37;;;;;;;1999.90;999.90;;;-0.90;99.90;;;;;;5065921;28;20024;-71
2024/01/08 06:18:06;;;;;;;1999.90;999.90;;;-0.90;99.90;;;;;;5069478;28;20033;-71
2024/01/08 06:20:33;;;;;;;1999.90;999.90;;;-0.90;99.90;;;;;;5064267;28;20025;-71
2024/01/08 06:22:59;;;;;;;;;;;-0.90;99.90;;;;;;5065395;28;20025;-71
2024/01/08 06:25:25;;;;;;;1999.90;999.90;;;-0.90;99.90;;;;;;5066761;28;20382;-68
2024/01/08 06:27:52;;;;;;;1999.90;999.90;;;-0.90;99.90;;;;;;5062671;28;20389;-71
2024/01/08 06:30:18;;;;;;;;;;;-0.80;99.90;;;;;;5062791;28;20032;-71
2024/01/08 06:32:44;;;;;;;1999.90;999.90;;;-0.80;99.90;;;;;;5073283;28;19904;-71
2024/01/08 06:35:10;;;;;;;;;;;-0.80;99.90;;;;;;5064200;28;20083;-71
2024/01/08 06:37:36;;;;;;;1999.90;999.90;;;-0.80;99.90;;;;;;5059823;28;19939;-71
2024/01/08 06:40:02;;;;;;;1999.90;999.90;;;-0.80;99.90;;;;;;5066521;28;20145;-71
2024/01/08 06:42:28;;;;;;;1999.90;999.90;;;-0.80;99.90;;;;;;5067747;28;20055;-71
2024/01/08 06:44:54;;;;;;;1999.90;999.90;;;-0.80;99.90;;;;;;5064923;28;20024;-71
2024/01/08 06:47:20;;;;;;;1999.90;999.90;;;-0.80;99.90;;;;;;5066987;28;20104;-71
2024/01/08 06:49:46;;;;;;;1999.90;999.90;;;-0.80;99.90;;;;;;5071313;28;20033;-71
2024/01/08 06:52:12;;;;;;;1999.90;999.90;;;-0.80;99.90;;;;;;5061461;28;20029;-71
2024/01/08 06:54:38;;;;;;;1999.90;999.90;;;-0.70;99.90;;;;;;5073082;28;20045;-67
2024/01/08 06:57:04;;;;;;;1999.90;999.90;;;-0.80;99.90;;;;;;5072908;28;20435;-71
2024/01/08 06:59:30;;;;;;;1999.90;999.90;;;-0.70;99.90;;;;;;5070885;28;20103;-71
2024/01/08 07:01:56;;;;;;;1999.90;999.90;;;-0.70;99.90;;;;;;5061295;28;20124;-71
2024/01/08 07:04:21;;;;;;;1999.90;999.90;;;-0.70;99.90;;;;;;5058215;28;20403;-71
2024/01/08 07:06:49;;;;;;;1999.90;999.90;;;-0.80;99.90;;;;;;5070099;28;20036;-70
2024/01/08 07:09:15;;;;;;;1999.90;999.90;;;-0.70;99.90;;;;;;5068049;28;20347;-70
2024/01/08 07:11:41;;;;;;;1999.90;999.90;;;-0.70;99.90;;;;;;5063003;28;20346;-71
2024/01/08 07:14:07;;;;;;;1999.90;999.90;;;-0.70;99.90;;;;;;5069408;28;20111;-70
2024/01/08 07:16:33;;;;;;;1999.90;999.90;;;-0.70;99.90;;;;;;5072369;28;20052;-67
2024/01/08 07:18:59;;;;;;;1999.90;999.90;;;-0.70;99.90;;;;;;5069919;28;20025;-71
2024/01/08 07:21:25;;;;;;;1999.90;999.90;;;-0.70;99.90;;;;;;5078105;28;20410;-71
2024/01/08 07:23:51;;;;;;;1999.90;999.90;;;-0.70;99.90;;;;;;5074149;28;20021;-71
2024/01/08 07:26:17;;;;;;;1999.90;999.90;;;-0.70;99.90;;;;;;5075981;28;20034;-71
2024/01/08 07:28:44;;;;;;;1999.90;999.90;;;-0.70;99.90;;;;;;5079921;28;20016;-70
2024/01/08 07:31:11;;;;;;;1999.90;999.90;;;-0.70;99.90;;;;;;5067724;28;20709;-70
2024/01/08 07:33:37;;;;;;;1999.90;999.90;;;-0.70;99.90;;;;;;5064407;28;20059;-71
2024/01/08 07:36:04;;;;;;;1999.90;999.90;;;-0.70;99.90;;;;;;5069365;28;20064;-70
2024/01/08 07:38:30;;;;;;;1999.90;999.90;;;-0.70;99.90;;;;;;5066194;28;20075;-70
2024/01/08 07:40:56;;;;;;;1999.90;999.90;;;-0.70;99.90;;;;;;5068777;28;20063;-68
2024/01/08 07:43:22;;;;;;;1999.90;999.90;;;-0.70;99.90;;;;;;5067672;28;20028;-71
2024/01/08 07:45:48;;;;;;;1999.90;999.90;;;-0.70;99.90;;;;;;5064743;28;20430;-70
2024/01/08 07:48:14;;;;;;;1999.90;999.90;;;-0.70;99.90;;;;;;5061950;28;20555;-68
2024/01/08 07:50:40;;;;;;;1999.90;999.90;;;-0.70;99.90;;;;;;5066605;28;20273;-71
2024/01/08 07:53:06;;;;;;;1999.90;999.90;;;-0.70;99.90;;;;;;5066177;28;20412;-70
2024/01/08 07:55:32;;;;;;;1999.90;999.90;;;-0.70;99.90;;;;;;5068732;28;20111;-71
2024/01/08 07:57:58;;;;;;;1999.90;999.90;;;-0.70;99.90;;;;;;5068677;28;20398;-71
2024/01/08 08:00:25;;;;;;;1999.90;999.90;;;-0.70;99.90;;;;;;5067172;28;20312;-70
2024/01/08 08:02:51;;;;;;;1999.90;999.90;;;-0.80;99.90;;;;;;5070494;28;20403;-71
2024/01/08 08:05:18;;;;;;;1999.90;999.90;;;-0.80;99.90;;;;;;5061962;28;20151;-71
2024/01/08 08:07:43;;;;;;;1999.90;999.90;;;-0.80;99.90;;;;;;5066326;28;20327;-71
2024/01/08 08:10:10;;;;;;;1999.90;999.90;;;-0.80;99.90;;;;;;5065210;28;20032;-71
2024/01/08 08:12:36;;;;;;;1999.90;999.90;;;-0.70;99.90;;;;;;5070760;28;20075;-71
2024/01/08 08:15:02;;;;;;;1999.90;999.90;;;-0.80;99.90;;;;;;5071173;28;20431;-70
2024/01/08 08:17:27;;;;;;;1999.90;999.90;;;-0.80;99.90;;;;;;5066458;28;20327;-71
2024/01/08 08:19:53;;;;;;;1999.90;999.90;;;-0.80;99.90;;;;;;5061616;28;20040;-70
2024/01/08 08:22:19;;;;;;;1999.90;999.90;;;-0.90;99.90;;;;;;5068905;28;20028;-71
2024/01/08 08:24:47;;;;;;;1999.90;999.90;;;-0.90;99.90;;;;;;5064693;28;20077;-71
2024/01/08 08:27:13;;;;;;;1999.90;999.90;;;-0.90;99.90;;;;;;5056651;28;20089;-67
2024/01/08 08:29:41;;;;;;;;;;;-0.90;99.90;;;;;;5060927;28;20420;-70
2024/01/08 08:32:08;;;;;;;1999.90;999.90;;;-0.90;99.90;;;;;;5062212;28;19913;-70
2024/01/08 08:34:34;;;;;;;1999.90;999.90;;;-0.90;99.90;;;;;;5064306;28;20039;-71
2024/01/08 08:37:00;;;;;;;1999.90;999.90;;;-0.80;99.90;;;;;;5069072;28;20024;-67
2024/01/08 08:39:26;;;;;;;1999.90;999.90;;;-0.90;99.90;;;;;;5065336;28;20439;-71
2024/01/08 08:41:52;;;;;;;1999.90;999.90;;;-0.90;99.90;;;;;;5064945;28;20048;-71
2024/01/08 08:44:18;;;;;;;1999.90;999.90;;;-0.90;99.90;;;;;;5070497;28;20040;-67
2024/01/08 08:46:44;;;;;;;1999.90;999.90;;;-0.80;99.90;;;;;;5070855;28;20021;-71
2024/01/08 08:49:12;;;;;;;1999.90;999.90;;;-0.80;99.90;;;;;;5069547;28;20036;-68
2024/01/08 08:51:38;;;;;;;1999.90;999.90;;;-0.80;99.90;;;;;;5068390;28;20036;-71
2024/01/08 08:54:06;;;;;;;1999.90;999.90;;;-0.80;99.90;;;;;;5064167;28;20033;-67
2024/01/08 08:56:32;;;;;;;1999.90;999.90;;;-0.80;99.90;;;;;;5069045;28;20028;-70
2024/01/08 08:58:59;;;;;;;1999.90;999.90;;;-0.80;99.90;;;;;;5069737;28;20031;-70
2024/01/08 09:01:28;;;;;;;1999.90;999.90;;;-0.80;99.90;;;;;;5077456;28;20048;-71
2024/01/08 09:03:54;;;;;;;1999.90;999.90;;;-0.90;99.90;;;;;;5072809;28;20431;-71
2024/01/08 09:06:23;;;;;;;1999.90;999.90;;;-0.80;99.90;;;;;;5068290;28;20032;-71
2024/01/08 09:08:50;;;;;;;1999.90;999.90;;;-0.80;99.90;;;;;;5072202;28;20024;-67
2024/01/08 09:11:17;;;;;;;1999.90;999.90;;;-0.80;99.90;;;;;;5072530;28;20028;-71
2024/01/08 09:13:43;;;;;;;1999.90;999.90;;;-0.80;99.90;;;;;;5073289;28;20579;-71
2024/01/08 09:16:12;;;;;;;1999.90;999.90;;;-0.80;99.90;;;;;;5071998;28;20119;-71
2024/01/08 09:18:38;;;;;;;1999.90;999.90;;;-0.70;99.90;;;;;;5071582;28;20356;-71
2024/01/08 09:21:08;;;;;;;1999.90;999.90;;;-0.70;99.90;;;;;;5073261;28;20040;-71
2024/01/08 09:23:34;;;;;;;1999.90;999.90;;;-0.70;99.90;;;;;;5063597;28;20033;-71
2024/01/08 09:26:00;;;;;;;1999.90;999.90;;;-0.70;99.90;;;;;;5073033;28;20081;-70
2024/01/08 09:28:25;;;;;;;1999.90;999.90;;;-0.70;99.90;;;;;;5069495;28;20029;-71
2024/01/08 09:30:54;;;;;;;1999.90;999.90;;;-0.70;99.90;;;;;;5067009;28;20028;-71
2024/01/08 09:33:20;;;;;;;1999.90;999.90;;;-0.70;99.90;;;;;;5072433;28;20450;-70
2024/01/08 09:35:47;;;;;;;1999.90;999.90;;;-0.70;99.90;;;;;;5074616;28;20103;-71
2024/01/08 09:38:13;;;;;;;1999.90;999.90;;;-0.70;99.90;;;;;;5070570;28;20066;-70
2024/01/08 09:40:41;;;;;;;1999.90;999.90;;;-0.60;99.90;;;;;;5073098;28;20110;-67
2024/01/08 09:43:07;;;;;;;1999.90;999.90;;;-0.60;99.90;;;;;;5070906;28;20040;-71
2024/01/08 09:45:33;;;;;;;1999.90;999.90;;;-0.60;99.90;;;;;;5071831;28;20036;-70
2024/01/08 09:47:59;;;;;;;1999.90;999.90;;;-0.60;99.90;;;;;;5067236;28;20025;-70
2024/01/08 09:50:28;;;;;;;1999.90;999.90;;;-0.60;99.90;;;;;;5068583;28;20032;-67
2024/01/08 09:52:56;;;;;;;1999.90;999.90;;;-0.60;99.90;;;;;;5075552;28;20024;-71
2024/01/08 09:55:22;;;;;;;1999.90;999.90;;;-0.60;99.90;;;;;;5080333;28;20020;-71
2024/01/08 09:57:48;;;;;;;1999.90;999.90;;;-0.60;99.90;;;;;;5084323;28;20024;-67
2024/01/08 10:00:14;;;;;;;1999.90;999.90;;;-0.50;99.90;;;;;;5080794;28;20120;-71
2024/01/08 10:02:41;;;;;;;1999.90;999.90;;;-0.50;99.90;;;;;;5081636;28;20033;-71
2024/01/08 10:05:07;;;;;;;1999.90;999.90;;;-0.50;99.90;;;;;;5074854;28;20035;-70
2024/01/08 10:07:35;;;;;;;1999.90;999.90;;;-0.50;99.90;;;;;;5068667;28;20040;-67
2024/01/08 10:10:02;;;;;;;1999.90;999.90;;;-0.50;99.90;;;;;;5065979;28;20115;-71
2024/01/08 10:12:31;;;;;;;1999.90;999.90;;;-0.50;99.90;;;;;;5070506;28;20564;-70
2024/01/08 10:14:56;;;;;;;1999.90;999.90;;;-0.40;99.90;;;;;;5067172;28;20059;-71
2024/01/08 10:17:22;;;;;;;1999.90;999.90;;;-0.40;99.90;;;;;;5069123;28;20060;-71
2024/01/08 10:19:48;;;;;;;1999.90;999.90;;;-0.40;99.90;;;;;;5071202;28;20029;-71
2024/01/08 10:22:14;;;;;;;1999.90;999.90;;;-0.40;99.90;;;;;;5070641;28;20426;-70
2024/01/08 10:24:42;;;;;;;1999.90;999.90;;;-0.40;99.90;;;;;;5069584;28;20320;-67
2024/01/08 10:27:08;;;;;;;1999.90;999.90;;;-0.40;99.90;;;;;;5068061;28;20070;-71
2024/01/08 10:29:36;;;;;;;1999.90;999.90;;;-0.30;99.90;;;;;;5068815;28;20036;-70
2024/01/08 10:32:02;;;;;;;1999.90;999.90;;;-0.30;99.90;;;;;;5066321;28;20141;-70
2024/01/08 10:34:30;;;;;;;1999.90;999.90;;;-0.40;99.90;;;;;;5072702;28;20375;-70
2024/01/08 10:36:57;;;;;;;1999.90;999.90;;;-0.30;99.90;;;;;;5072739;28;20040;-71
2024/01/08 10:39:24;;;;;;;1999.90;999.90;;;-0.30;99.90;;;;;;5071023;28;20367;-71
2024/01/08 10:41:50;;;;;;;1999.90;999.90;;;-0.30;99.90;;;;;;5063998;28;20044;-71
2024/01/08 10:44:16;;;;;;;1999.90;999.90;;;-0.30;99.90;;;;;;5070866;28;20032;-71
2024/01/08 10:46:56;;;;;;;1999.90;999.90;;;-0.30;99.90;;;;;;5072428;28;20024;-71
2024/01/08 10:49:30;;;;;;;1999.90;999.90;;;-0.20;99.90;;;;;;5070385;28;20111;-70
2024/01/08 10:51:59;;;;;;;1999.90;999.90;;;-0.20;99.90;;;;;;5066736;28;20094;-71
2024/01/08 10:54:36;;;;;;;1999.90;999.90;;;-0.30;99.90;;;;;;5069290;28;20021;-71
2024/01/08 10:57:06;;;;;;;1999.90;999.90;;;-0.30;99.90;;;;;;5063283;28;20119;-70
2024/01/08 10:59:33;;;;;;;1999.90;999.90;;;-0.30;99.90;;;;;;5066764;28;20112;-70
2024/01/08 11:01:59;;;;;;;1999.90;999.90;;;-0.20;99.90;;;;;;5068877;28;20033;-67
2024/01/08 11:04:25;;;;;;;1999.90;999.90;;;-0.30;99.90;;;;;;5072074;28;20438;-71
2024/01/08 11:06:54;;;;;;;1999.90;999.90;;;-0.30;99.90;;;;;;5071803;28;20060;-68
2024/01/08 11:09:26;;;;;;;1999.90;999.90;;;-0.30;99.90;;;;;;5068777;28;20083;-70
2024/01/08 11:11:54;;;;;;;1999.90;999.90;;;-0.30;99.90;;;;;;5071536;28;20033;-71
2024/01/08 11:14:22;;;;;;;1999.90;999.90;;;-0.30;99.90;;;;;;5069600;28;20032;-71
2024/01/08 11:33:26;;;;;;;1999.90;999.90;;;0.10;99.90;;;;;;5162357;27;20373;-70
2024/01/08 11:36:00;;;;;;;1999.90;999.90;;;-0.10;99.90;;;;;;5150144;27;20709;-70
2024/01/08 11:38:27;;;;;;;1999.90;999.90;;;0.00;99.90;;;;;;5138213;27;20427;-69
2024/01/08 11:40:54;;;;;;;1999.90;999.90;;;0.00;99.90;;;;;;5139798;27;20035;-70
2024/01/08 11:43:21;;;;;;;1999.90;999.90;;;0.00;99.90;;;;;;5141567;27;20023;-69
2024/01/08 11:45:47;;;;;;;1999.90;999.90;;;0.00;99.90;;;;;;5147072;27;20026;-70
2024/01/08 11:48:13;;;;;;;1999.90;999.90;;;-0.10;99.90;;;;;;5149561;27;20034;-70
2024/01/08 11:50:42;;;;;;;1999.90;999.90;;;-0.10;99.90;;;;;;5147228;27;20020;-70
2024/01/08 11:53:12;;;;;;;1999.90;999.90;;;0.00;99.90;;;;;;5145847;27;20035;-68
2024/01/08 11:55:40;;;;;;;1999.90;999.90;;;0.10;99.90;;;;;;5147379;27;20118;-70
2024/01/08 11:58:13;;;;;;;1999.90;999.90;;;0.10;99.90;;;;;;5129785;27;20035;-68
2024/01/08 12:00:41;;;;;;;1999.90;999.90;;;0.10;99.90;;;;;;5123484;27;20023;-71
2024/01/08 12:03:09;;;;;;;1999.90;999.90;;;0.00;99.90;;;;;;5130296;27;20027;-71
2024/01/08 12:05:36;;;;;;;1999.90;999.90;;;0.00;99.90;;;;;;5143473;27;20024;-70
2024/01/08 12:08:03;;;;;;;1999.90;999.90;;;0.00;99.90;;;;;;5146586;27;20018;-70
2024/01/08 12:10:30;;;;;;;1999.90;999.90;;;0.00;99.90;;;;;;5129178;27;20026;-70
2024/01/08 12:12:56;;;;;;;1999.90;999.90;;;0.20;99.90;;;;;;5144653;27;20012;-69
2024/01/08 12:15:22;;;;;;;1999.90;999.90;;;0.30;99.90;;;;;;5130172;27;20445;-68
2024/01/08 12:17:48;;;;;;;1999.90;999.90;;;0.20;99.90;;;;;;5141744;27;20019;-70